X  Zatvori METAR podaci zračne luke        LDPL Pula
Temperatura
21°C Temperatura
20°C Točka rosišta
94% Vlaga



Vjetar
7 MPS
11 KM/S
3 M/S
6 Čvorovi



90°
I
Trenutna situacija

Mostly Clear Uglavnom vedro
Tlak zraka 1010 (hPa) - 29.82 (inHg)
Vidljivost 6 (milje) - 10 (km)
Zračna luka
Kôd zračne luke LDPL

Lokacija: Pula
Udaljenost: 39 (mi)

Metar:
METAR LDPL 160130Z 09006KT CAVOK 21/20 Q1010

Vrijeme: 16-06-2024 03:30 CEST